sensor_id;sensor_type;location;lat;lon;timestamp;P1;durP1;ratioP1;P2;durP2;ratioP2
419;SDS011;42600;54.408;13.016;2022-10-23T00:00:14;6.77;;;1.80;;
419;SDS011;42600;54.408;13.016;2022-10-23T00:02:40;4.97;;;2.40;;
419;SDS011;42600;54.408;13.016;2022-10-23T00:05:09;7.37;;;2.80;;
419;SDS011;42600;54.408;13.016;2022-10-23T00:07:35;8.20;;;2.17;;
419;SDS011;42600;54.408;13.016;2022-10-23T00:10:02;10.80;;;2.30;;
419;SDS011;42600;54.408;13.016;2022-10-23T00:12:29;4.80;;;2.67;;
419;SDS011;42600;54.408;13.016;2022-10-23T00:14:56;4.73;;;2.33;;
419;SDS011;42600;54.408;13.016;2022-10-23T00:17:22;5.70;;;2.20;;
419;SDS011;42600;54.408;13.016;2022-10-23T00:19:49;3.40;;;2.10;;
419;SDS011;42600;54.408;13.016;2022-10-23T00:22:17;12.10;;;2.20;;
419;SDS011;42600;54.408;13.016;2022-10-23T00:24:43;8.87;;;2.87;;
419;SDS011;42600;54.408;13.016;2022-10-23T00:27:10;8.50;;;2.80;;
419;SDS011;42600;54.408;13.016;2022-10-23T00:29:37;12.17;;;4.10;;
419;SDS011;42600;54.408;13.016;2022-10-23T00:32:03;4.63;;;1.67;;
419;SDS011;42600;54.408;13.016;2022-10-23T00:34:30;8.53;;;3.50;;
419;SDS011;42600;54.408;13.016;2022-10-23T00:36:56;6.60;;;2.00;;
419;SDS011;42600;54.408;13.016;2022-10-23T00:39:24;8.13;;;1.93;;
419;SDS011;42600;54.408;13.016;2022-10-23T00:41:51;2.63;;;1.40;;
419;SDS011;42600;54.408;13.016;2022-10-23T00:47:36;3.20;;;1.77;;
419;SDS011;42600;54.408;13.016;2022-10-23T00:50:03;3.13;;;1.90;;
419;SDS011;42600;54.408;13.016;2022-10-23T00:52:30;6.20;;;1.77;;
419;SDS011;42600;54.408;13.016;2022-10-23T00:54:59;8.43;;;1.97;;
419;SDS011;42600;54.408;13.016;2022-10-23T00:57:27;15.80;;;2.37;;
419;SDS011;42600;54.408;13.016;2022-10-23T00:59:54;5.23;;;1.70;;
419;SDS011;42600;54.408;13.016;2022-10-23T01:02:21;6.20;;;1.80;;
419;SDS011;42600;54.408;13.016;2022-10-23T01:04:47;2.40;;;1.30;;
419;SDS011;42600;54.408;13.016;2022-10-23T01:07:16;4.23;;;2.27;;
419;SDS011;42600;54.408;13.016;2022-10-23T01:09:50;3.20;;;1.80;;
419;SDS011;42600;54.408;13.016;2022-10-23T01:12:27;10.70;;;1.87;;
419;SDS011;42600;54.408;13.016;2022-10-23T01:15:05;3.77;;;2.10;;
419;SDS011;42600;54.408;13.016;2022-10-23T01:17:37;8.07;;;1.60;;
419;SDS011;42600;54.408;13.016;2022-10-23T01:20:13;2.10;;;1.40;;
419;SDS011;42600;54.408;13.016;2022-10-23T01:22:53;3.47;;;2.27;;
419;SDS011;42600;54.408;13.016;2022-10-23T01:28:54;7.50;;;1.67;;
419;SDS011;42600;54.408;13.016;2022-10-23T01:31:24;3.10;;;1.43;;
419;SDS011;42600;54.408;13.016;2022-10-23T01:33:57;11.33;;;2.13;;
419;SDS011;42600;54.408;13.016;2022-10-23T01:36:28;9.33;;;2.00;;
419;SDS011;42600;54.408;13.016;2022-10-23T01:38:58;6.83;;;2.30;;
419;SDS011;42600;54.408;13.016;2022-10-23T01:41:30;3.70;;;1.80;;
419;SDS011;42600;54.408;13.016;2022-10-23T01:44:05;4.13;;;2.40;;
419;SDS011;42600;54.408;13.016;2022-10-23T01:46:36;18.83;;;4.43;;
419;SDS011;42600;54.408;13.016;2022-10-23T01:49:05;9.03;;;3.77;;
419;SDS011;42600;54.408;13.016;2022-10-23T01:51:35;9.30;;;4.20;;
419;SDS011;42600;54.408;13.016;2022-10-23T01:54:04;12.77;;;2.80;;
419;SDS011;42600;54.408;13.016;2022-10-23T01:56:34;6.20;;;2.97;;
419;SDS011;42600;54.408;13.016;2022-10-23T01:59:07;7.50;;;3.20;;
419;SDS011;42600;54.408;13.016;2022-10-23T02:01:37;7.20;;;2.90;;
419;SDS011;42600;54.408;13.016;2022-10-23T02:04:07;22.63;;;3.57;;
419;SDS011;42600;54.408;13.016;2022-10-23T02:06:37;13.40;;;5.63;;
419;SDS011;42600;54.408;13.016;2022-10-23T02:09:05;19.33;;;6.33;;
419;SDS011;42600;54.408;13.016;2022-10-23T02:11:33;17.33;;;4.83;;
419;SDS011;42600;54.408;13.016;2022-10-23T02:14:07;12.57;;;3.83;;
419;SDS011;42600;54.408;13.016;2022-10-23T02:16:39;8.17;;;4.40;;
419;SDS011;42600;54.408;13.016;2022-10-23T02:19:11;15.40;;;5.30;;
419;SDS011;42600;54.408;13.016;2022-10-23T02:21:47;12.50;;;5.13;;
419;SDS011;42600;54.408;13.016;2022-10-23T02:24:19;17.57;;;6.20;;
419;SDS011;42600;54.408;13.016;2022-10-23T02:26:52;18.57;;;6.03;;
419;SDS011;42600;54.408;13.016;2022-10-23T02:29:25;10.43;;;4.10;;
419;SDS011;42600;54.408;13.016;2022-10-23T02:31:55;13.83;;;5.37;;
419;SDS011;42600;54.408;13.016;2022-10-23T02:34:22;13.10;;;4.70;;
419;SDS011;42600;54.408;13.016;2022-10-23T02:36:48;8.83;;;4.03;;
419;SDS011;42600;54.408;13.016;2022-10-23T02:39:15;9.80;;;3.27;;
419;SDS011;42600;54.408;13.016;2022-10-23T02:41:43;14.70;;;5.63;;
419;SDS011;42600;54.408;13.016;2022-10-23T02:47:08;9.93;;;4.73;;
419;SDS011;42600;54.408;13.016;2022-10-23T02:49:43;13.83;;;4.93;;
419;SDS011;42600;54.408;13.016;2022-10-23T02:52:17;12.83;;;3.30;;
419;SDS011;42600;54.408;13.016;2022-10-23T02:54:54;9.87;;;3.80;;
419;SDS011;42600;54.408;13.016;2022-10-23T02:57:34;12.93;;;3.23;;
419;SDS011;42600;54.408;13.016;2022-10-23T03:00:09;11.40;;;4.10;;
419;SDS011;42600;54.408;13.016;2022-10-23T03:02:39;10.40;;;4.03;;
419;SDS011;42600;54.408;13.016;2022-10-23T03:05:10;6.50;;;3.00;;
419;SDS011;42600;54.408;13.016;2022-10-23T03:07:39;16.10;;;4.27;;
419;SDS011;42600;54.408;13.016;2022-10-23T03:10:07;10.63;;;4.03;;
419;SDS011;42600;54.408;13.016;2022-10-23T03:12:35;6.87;;;2.60;;
419;SDS011;42600;54.408;13.016;2022-10-23T03:15:02;14.80;;;3.77;;
419;SDS011;42600;54.408;13.016;2022-10-23T03:17:30;16.73;;;3.23;;
419;SDS011;42600;54.408;13.016;2022-10-23T03:19:56;4.87;;;2.33;;
419;SDS011;42600;54.408;13.016;2022-10-23T03:22:23;6.77;;;2.53;;
419;SDS011;42600;54.408;13.016;2022-10-23T03:24:50;3.80;;;2.30;;
419;SDS011;42600;54.408;13.016;2022-10-23T03:27:17;3.70;;;2.20;;
419;SDS011;42600;54.408;13.016;2022-10-23T03:29:43;6.97;;;2.90;;
419;SDS011;42600;54.408;13.016;2022-10-23T03:32:10;13.73;;;2.50;;
419;SDS011;42600;54.408;13.016;2022-10-23T03:34:37;4.10;;;1.67;;
419;SDS011;42600;54.408;13.016;2022-10-23T03:37:04;8.23;;;2.43;;
419;SDS011;42600;54.408;13.016;2022-10-23T03:39:31;5.37;;;2.10;;
419;SDS011;42600;54.408;13.016;2022-10-23T03:41:57;5.60;;;2.47;;
419;SDS011;42600;54.408;13.016;2022-10-23T03:44:24;5.90;;;2.43;;
419;SDS011;42600;54.408;13.016;2022-10-23T03:46:50;5.60;;;2.53;;
419;SDS011;42600;54.408;13.016;2022-10-23T03:49:17;7.07;;;3.00;;
419;SDS011;42600;54.408;13.016;2022-10-23T03:51:45;6.37;;;2.50;;
419;SDS011;42600;54.408;13.016;2022-10-23T03:54:16;6.70;;;2.40;;
419;SDS011;42600;54.408;13.016;2022-10-23T03:56:43;8.43;;;3.30;;
419;SDS011;42600;54.408;13.016;2022-10-23T03:59:10;4.30;;;2.10;;
419;SDS011;42600;54.408;13.016;2022-10-23T04:01:37;7.40;;;2.27;;
419;SDS011;42600;54.408;13.016;2022-10-23T04:04:03;5.13;;;1.97;;
419;SDS011;42600;54.408;13.016;2022-10-23T04:06:30;10.50;;;2.30;;
419;SDS011;42600;54.408;13.016;2022-10-23T04:08:58;12.33;;;2.70;;
419;SDS011;42600;54.408;13.016;2022-10-23T04:11:24;6.57;;;2.97;;
419;SDS011;42600;54.408;13.016;2022-10-23T04:13:51;10.20;;;4.20;;
419;SDS011;42600;54.408;13.016;2022-10-23T04:16:17;3.73;;;2.23;;
419;SDS011;42600;54.408;13.016;2022-10-23T04:18:44;5.80;;;2.70;;
419;SDS011;42600;54.408;13.016;2022-10-23T04:21:11;6.43;;;2.90;;
419;SDS011;42600;54.408;13.016;2022-10-23T04:23:38;7.07;;;3.80;;
419;SDS011;42600;54.408;13.016;2022-10-23T04:26:06;4.30;;;2.13;;
419;SDS011;42600;54.408;13.016;2022-10-23T04:28:32;9.17;;;3.10;;
419;SDS011;42600;54.408;13.016;2022-10-23T04:30:59;11.00;;;2.33;;
419;SDS011;42600;54.408;13.016;2022-10-23T04:33:25;6.30;;;3.10;;
419;SDS011;42600;54.408;13.016;2022-10-23T04:35:52;8.03;;;2.70;;
419;SDS011;42600;54.408;13.016;2022-10-23T04:38:19;8.63;;;3.30;;
419;SDS011;42600;54.408;13.016;2022-10-23T04:40:45;6.67;;;3.60;;
419;SDS011;42600;54.408;13.016;2022-10-23T04:43:13;22.13;;;4.30;;
419;SDS011;42600;54.408;13.016;2022-10-23T04:45:40;7.80;;;2.80;;
419;SDS011;42600;54.408;13.016;2022-10-23T04:48:06;8.23;;;3.97;;
419;SDS011;42600;54.408;13.016;2022-10-23T04:50:33;9.70;;;2.30;;
419;SDS011;42600;54.408;13.016;2022-10-23T04:52:59;6.67;;;3.03;;
419;SDS011;42600;54.408;13.016;2022-10-23T04:55:26;12.10;;;4.80;;
419;SDS011;42600;54.408;13.016;2022-10-23T04:57:52;14.13;;;4.30;;
419;SDS011;42600;54.408;13.016;2022-10-23T05:00:21;16.47;;;3.17;;
419;SDS011;42600;54.408;13.016;2022-10-23T05:02:47;8.37;;;4.00;;
419;SDS011;42600;54.408;13.016;2022-10-23T05:05:14;10.73;;;3.73;;
419;SDS011;42600;54.408;13.016;2022-10-23T05:07:41;12.33;;;3.70;;
419;SDS011;42600;54.408;13.016;2022-10-23T05:10:07;7.73;;;3.73;;
419;SDS011;42600;54.408;13.016;2022-10-23T05:12:34;9.67;;;4.03;;
419;SDS011;42600;54.408;13.016;2022-10-23T05:15:01;10.70;;;3.57;;
419;SDS011;42600;54.408;13.016;2022-10-23T05:17:30;17.63;;;5.10;;
419;SDS011;42600;54.408;13.016;2022-10-23T05:19:59;8.73;;;4.30;;
419;SDS011;42600;54.408;13.016;2022-10-23T05:22:31;20.10;;;4.70;;
419;SDS011;42600;54.408;13.016;2022-10-23T05:25:00;12.87;;;4.60;;
419;SDS011;42600;54.408;13.016;2022-10-23T05:27:27;13.70;;;4.40;;
419;SDS011;42600;54.408;13.016;2022-10-23T05:29:53;17.10;;;5.17;;
419;SDS011;42600;54.408;13.016;2022-10-23T05:32:20;12.90;;;3.97;;
419;SDS011;42600;54.408;13.016;2022-10-23T05:34:49;12.50;;;5.17;;
419;SDS011;42600;54.408;13.016;2022-10-23T05:37:15;21.43;;;5.80;;
419;SDS011;42600;54.408;13.016;2022-10-23T05:39:42;9.80;;;4.00;;
419;SDS011;42600;54.408;13.016;2022-10-23T05:42:09;7.63;;;3.40;;
419;SDS011;42600;54.408;13.016;2022-10-23T05:44:36;11.80;;;4.03;;
419;SDS011;42600;54.408;13.016;2022-10-23T05:47:03;12.00;;;4.10;;
419;SDS011;42600;54.408;13.016;2022-10-23T05:49:29;11.83;;;3.50;;
419;SDS011;42600;54.408;13.016;2022-10-23T05:51:57;11.93;;;5.30;;
419;SDS011;42600;54.408;13.016;2022-10-23T05:54:24;9.30;;;4.60;;
419;SDS011;42600;54.408;13.016;2022-10-23T05:56:51;14.50;;;4.73;;
419;SDS011;42600;54.408;13.016;2022-10-23T05:59:17;8.13;;;4.50;;
419;SDS011;42600;54.408;13.016;2022-10-23T06:01:44;12.17;;;3.77;;
419;SDS011;42600;54.408;13.016;2022-10-23T06:04:10;6.70;;;3.13;;
419;SDS011;42600;54.408;13.016;2022-10-23T06:06:37;14.87;;;4.37;;
419;SDS011;42600;54.408;13.016;2022-10-23T06:09:05;13.30;;;3.47;;
419;SDS011;42600;54.408;13.016;2022-10-23T06:11:31;10.00;;;4.07;;
419;SDS011;42600;54.408;13.016;2022-10-23T06:13:58;11.10;;;4.27;;
419;SDS011;42600;54.408;13.016;2022-10-23T06:16:25;15.23;;;5.00;;
419;SDS011;42600;54.408;13.016;2022-10-23T06:18:52;18.03;;;6.13;;
419;SDS011;42600;54.408;13.016;2022-10-23T06:21:18;7.70;;;4.07;;
419;SDS011;42600;54.408;13.016;2022-10-23T06:23:45;11.60;;;5.03;;
419;SDS011;42600;54.408;13.016;2022-10-23T06:26:15;15.23;;;3.60;;
419;SDS011;42600;54.408;13.016;2022-10-23T06:28:42;13.37;;;3.70;;
419;SDS011;42600;54.408;13.016;2022-10-23T06:31:10;11.57;;;3.70;;
419;SDS011;42600;54.408;13.016;2022-10-23T06:33:37;14.80;;;4.20;;
419;SDS011;42600;54.408;13.016;2022-10-23T06:38:33;14.43;;;3.67;;
419;SDS011;42600;54.408;13.016;2022-10-23T06:41:01;13.03;;;4.40;;
419;SDS011;42600;54.408;13.016;2022-10-23T06:43:30;10.33;;;3.37;;
419;SDS011;42600;54.408;13.016;2022-10-23T06:45:58;9.20;;;4.20;;
419;SDS011;42600;54.408;13.016;2022-10-23T06:48:25;8.13;;;3.70;;
419;SDS011;42600;54.408;13.016;2022-10-23T06:50:52;15.70;;;4.10;;
419;SDS011;42600;54.408;13.016;2022-10-23T06:53:19;8.13;;;3.40;;
419;SDS011;42600;54.408;13.016;2022-10-23T06:55:47;9.23;;;4.00;;
419;SDS011;42600;54.408;13.016;2022-10-23T06:58:14;4.93;;;2.87;;
419;SDS011;42600;54.408;13.016;2022-10-23T07:00:42;7.97;;;3.50;;
419;SDS011;42600;54.408;13.016;2022-10-23T07:03:09;11.73;;;4.70;;
419;SDS011;42600;54.408;13.016;2022-10-23T07:05:35;14.37;;;4.80;;
419;SDS011;42600;54.408;13.016;2022-10-23T07:08:03;14.00;;;5.40;;
419;SDS011;42600;54.408;13.016;2022-10-23T07:10:30;28.10;;;6.80;;
419;SDS011;42600;54.408;13.016;2022-10-23T07:12:57;9.60;;;3.67;;
419;SDS011;42600;54.408;13.016;2022-10-23T07:15:24;6.57;;;3.30;;
419;SDS011;42600;54.408;13.016;2022-10-23T07:17:53;8.17;;;3.40;;
419;SDS011;42600;54.408;13.016;2022-10-23T07:20:19;8.13;;;4.93;;
419;SDS011;42600;54.408;13.016;2022-10-23T07:22:49;12.20;;;5.70;;
419;SDS011;42600;54.408;13.016;2022-10-23T07:25:16;8.03;;;3.70;;
419;SDS011;42600;54.408;13.016;2022-10-23T07:27:43;8.53;;;4.43;;
419;SDS011;42600;54.408;13.016;2022-10-23T07:30:10;14.10;;;4.30;;
419;SDS011;42600;54.408;13.016;2022-10-23T07:32:37;8.70;;;4.57;;
419;SDS011;42600;54.408;13.016;2022-10-23T07:35:06;12.93;;;4.90;;
419;SDS011;42600;54.408;13.016;2022-10-23T07:37:34;11.13;;;4.80;;
419;SDS011;42600;54.408;13.016;2022-10-23T07:40:00;12.77;;;5.60;;
419;SDS011;42600;54.408;13.016;2022-10-23T07:42:27;9.60;;;3.93;;
419;SDS011;42600;54.408;13.016;2022-10-23T07:44:53;8.17;;;3.47;;
419;SDS011;42600;54.408;13.016;2022-10-23T07:47:20;15.57;;;4.70;;
419;SDS011;42600;54.408;13.016;2022-10-23T07:49:46;9.43;;;3.50;;
419;SDS011;42600;54.408;13.016;2022-10-23T07:52:15;11.50;;;4.83;;
419;SDS011;42600;54.408;13.016;2022-10-23T07:54:41;8.67;;;4.80;;
419;SDS011;42600;54.408;13.016;2022-10-23T07:57:08;10.77;;;3.57;;
419;SDS011;42600;54.408;13.016;2022-10-23T07:59:36;10.93;;;3.40;;
419;SDS011;42600;54.408;13.016;2022-10-23T08:02:03;10.23;;;3.67;;
419;SDS011;42600;54.408;13.016;2022-10-23T08:04:29;15.30;;;4.20;;
419;SDS011;42600;54.408;13.016;2022-10-23T08:06:56;9.63;;;3.80;;
419;SDS011;42600;54.408;13.016;2022-10-23T08:09:24;5.37;;;3.97;;
419;SDS011;42600;54.408;13.016;2022-10-23T08:11:50;14.70;;;3.93;;
419;SDS011;42600;54.408;13.016;2022-10-23T08:14:17;10.87;;;4.57;;
419;SDS011;42600;54.408;13.016;2022-10-23T08:16:44;5.13;;;2.63;;
419;SDS011;42600;54.408;13.016;2022-10-23T08:19:10;10.83;;;4.30;;
419;SDS011;42600;54.408;13.016;2022-10-23T08:21:37;14.30;;;6.33;;
419;SDS011;42600;54.408;13.016;2022-10-23T08:24:04;11.43;;;4.80;;
419;SDS011;42600;54.408;13.016;2022-10-23T08:26:32;18.57;;;4.80;;
419;SDS011;42600;54.408;13.016;2022-10-23T08:28:59;18.67;;;5.10;;
419;SDS011;42600;54.408;13.016;2022-10-23T08:31:26;15.17;;;4.50;;
419;SDS011;42600;54.408;13.016;2022-10-23T08:33:53;13.90;;;4.83;;
419;SDS011;42600;54.408;13.016;2022-10-23T08:36:20;14.93;;;4.97;;
419;SDS011;42600;54.408;13.016;2022-10-23T08:38:49;12.43;;;4.87;;
419;SDS011;42600;54.408;13.016;2022-10-23T08:41:20;16.27;;;5.30;;
419;SDS011;42600;54.408;13.016;2022-10-23T08:43:52;11.13;;;5.50;;
419;SDS011;42600;54.408;13.016;2022-10-23T08:46:24;19.73;;;6.10;;
419;SDS011;42600;54.408;13.016;2022-10-23T08:48:55;13.93;;;4.50;;
419;SDS011;42600;54.408;13.016;2022-10-23T08:51:31;15.20;;;5.20;;
419;SDS011;42600;54.408;13.016;2022-10-23T08:54:05;14.47;;;5.97;;
419;SDS011;42600;54.408;13.016;2022-10-23T08:56:41;31.33;;;6.17;;
419;SDS011;42600;54.408;13.016;2022-10-23T08:59:16;9.97;;;4.53;;
419;SDS011;42600;54.408;13.016;2022-10-23T09:01:49;15.87;;;5.63;;
419;SDS011;42600;54.408;13.016;2022-10-23T09:04:21;23.50;;;5.10;;
419;SDS011;42600;54.408;13.016;2022-10-23T09:06:50;13.07;;;5.63;;
419;SDS011;42600;54.408;13.016;2022-10-23T09:09:34;15.43;;;6.73;;
419;SDS011;42600;54.408;13.016;2022-10-23T09:12:20;12.37;;;4.07;;
419;SDS011;42600;54.408;13.016;2022-10-23T09:14:58;22.43;;;5.83;;
419;SDS011;42600;54.408;13.016;2022-10-23T09:17:31;22.40;;;5.40;;
419;SDS011;42600;54.408;13.016;2022-10-23T09:20:01;19.03;;;4.67;;
419;SDS011;42600;54.408;13.016;2022-10-23T09:22:37;11.83;;;5.77;;
419;SDS011;42600;54.408;13.016;2022-10-23T09:25:07;15.70;;;5.47;;
419;SDS011;42600;54.408;13.016;2022-10-23T09:27:34;15.63;;;5.73;;
419;SDS011;42600;54.408;13.016;2022-10-23T09:30:03;13.47;;;4.77;;
419;SDS011;42600;54.408;13.016;2022-10-23T09:32:33;14.87;;;4.50;;
419;SDS011;42600;54.408;13.016;2022-10-23T09:35:01;11.60;;;4.80;;
419;SDS011;42600;54.408;13.016;2022-10-23T09:37:30;15.23;;;5.40;;
419;SDS011;42600;54.408;13.016;2022-10-23T09:40:00;14.47;;;4.57;;
419;SDS011;42600;54.408;13.016;2022-10-23T09:42:28;18.00;;;5.60;;
419;SDS011;42600;54.408;13.016;2022-10-23T09:44:55;15.63;;;4.27;;
419;SDS011;42600;54.408;13.016;2022-10-23T09:47:23;20.57;;;4.60;;
419;SDS011;42600;54.408;13.016;2022-10-23T09:49:51;32.80;;;5.23;;
419;SDS011;42600;54.408;13.016;2022-10-23T09:52:23;8.60;;;4.47;;
419;SDS011;42600;54.408;13.016;2022-10-23T09:54:54;10.67;;;5.03;;
419;SDS011;42600;54.408;13.016;2022-10-23T09:57:25;13.27;;;5.20;;
419;SDS011;42600;54.408;13.016;2022-10-23T09:59:54;16.20;;;4.90;;
419;SDS011;42600;54.408;13.016;2022-10-23T10:02:26;15.30;;;5.70;;
419;SDS011;42600;54.408;13.016;2022-10-23T10:04:55;7.67;;;3.70;;
419;SDS011;42600;54.408;13.016;2022-10-23T10:07:23;8.33;;;3.17;;
419;SDS011;42600;54.408;13.016;2022-10-23T10:09:51;14.37;;;4.03;;
419;SDS011;42600;54.408;13.016;2022-10-23T10:12:23;14.90;;;4.37;;
419;SDS011;42600;54.408;13.016;2022-10-23T10:15:09;9.10;;;4.33;;
419;SDS011;42600;54.408;13.016;2022-10-23T10:17:46;25.20;;;5.23;;
419;SDS011;42600;54.408;13.016;2022-10-23T10:20:32;21.03;;;5.63;;
419;SDS011;42600;54.408;13.016;2022-10-23T10:23:12;14.10;;;4.63;;
419;SDS011;42600;54.408;13.016;2022-10-23T10:25:43;7.70;;;4.00;;
419;SDS011;42600;54.408;13.016;2022-10-23T10:28:19;15.20;;;4.47;;
419;SDS011;42600;54.408;13.016;2022-10-23T10:30:57;12.90;;;3.87;;
419;SDS011;42600;54.408;13.016;2022-10-23T10:33:33;12.03;;;5.07;;
419;SDS011;42600;54.408;13.016;2022-10-23T10:36:09;9.17;;;4.07;;
419;SDS011;42600;54.408;13.016;2022-10-23T10:38:44;27.10;;;5.80;;
419;SDS011;42600;54.408;13.016;2022-10-23T10:41:32;11.03;;;5.23;;
419;SDS011;42600;54.408;13.016;2022-10-23T10:47:09;10.10;;;3.97;;
419;SDS011;42600;54.408;13.016;2022-10-23T10:49:41;17.23;;;4.00;;
419;SDS011;42600;54.408;13.016;2022-10-23T10:52:15;14.23;;;6.60;;
419;SDS011;42600;54.408;13.016;2022-10-23T10:54:51;19.47;;;5.87;;
419;SDS011;42600;54.408;13.016;2022-10-23T10:57:26;15.63;;;4.00;;
419;SDS011;42600;54.408;13.016;2022-10-23T10:59:58;21.03;;;7.07;;
419;SDS011;42600;54.408;13.016;2022-10-23T11:02:30;12.70;;;5.43;;
419;SDS011;42600;54.408;13.016;2022-10-23T11:05:11;8.40;;;3.47;;
419;SDS011;42600;54.408;13.016;2022-10-23T11:07:47;8.07;;;4.70;;
419;SDS011;42600;54.408;13.016;2022-10-23T11:10:19;8.80;;;3.73;;
419;SDS011;42600;54.408;13.016;2022-10-23T11:12:46;17.80;;;3.87;;
419;SDS011;42600;54.408;13.016;2022-10-23T11:15:13;7.33;;;3.67;;
419;SDS011;42600;54.408;13.016;2022-10-23T11:17:43;9.83;;;3.53;;
419;SDS011;42600;54.408;13.016;2022-10-23T11:20:19;26.53;;;5.67;;
419;SDS011;42600;54.408;13.016;2022-10-23T11:23:39;8.83;;;3.97;;
419;SDS011;42600;54.408;13.016;2022-10-23T11:26:34;15.73;;;4.67;;
419;SDS011;42600;54.408;13.016;2022-10-23T11:29:20;13.07;;;6.27;;
419;SDS011;42600;54.408;13.016;2022-10-23T11:32:13;15.27;;;4.60;;
419;SDS011;42600;54.408;13.016;2022-10-23T11:38:08;24.33;;;5.23;;
419;SDS011;42600;54.408;13.016;2022-10-23T11:40:42;19.83;;;7.70;;
419;SDS011;42600;54.408;13.016;2022-10-23T11:43:10;10.77;;;4.00;;
419;SDS011;42600;54.408;13.016;2022-10-23T11:45:37;15.17;;;6.00;;
419;SDS011;42600;54.408;13.016;2022-10-23T11:48:05;11.73;;;4.10;;
419;SDS011;42600;54.408;13.016;2022-10-23T11:50:50;8.17;;;3.80;;
419;SDS011;42600;54.408;13.016;2022-10-23T11:53:24;10.53;;;5.33;;
419;SDS011;42600;54.408;13.016;2022-10-23T11:56:04;13.90;;;5.30;;
419;SDS011;42600;54.408;13.016;2022-10-23T11:58:48;11.40;;;4.30;;
419;SDS011;42600;54.408;13.016;2022-10-23T12:01:33;18.33;;;5.53;;
419;SDS011;42600;54.408;13.016;2022-10-23T12:04:05;11.23;;;4.60;;
419;SDS011;42600;54.408;13.016;2022-10-23T12:06:46;5.40;;;2.90;;
419;SDS011;42600;54.408;13.016;2022-10-23T12:09:29;9.13;;;3.93;;
419;SDS011;42600;54.408;13.016;2022-10-23T12:12:13;8.00;;;3.93;;
419;SDS011;42600;54.408;13.016;2022-10-23T12:14:43;13.23;;;4.50;;
419;SDS011;42600;54.408;13.016;2022-10-23T12:17:19;21.67;;;5.83;;
419;SDS011;42600;54.408;13.016;2022-10-23T12:20:00;17.90;;;4.77;;
419;SDS011;42600;54.408;13.016;2022-10-23T12:22:41;15.93;;;5.73;;
419;SDS011;42600;54.408;13.016;2022-10-23T12:25:16;12.00;;;4.90;;
419;SDS011;42600;54.408;13.016;2022-10-23T12:27:49;14.93;;;5.50;;
419;SDS011;42600;54.408;13.016;2022-10-23T12:30:23;13.67;;;4.63;;
419;SDS011;42600;54.408;13.016;2022-10-23T12:33:13;14.80;;;4.63;;
419;SDS011;42600;54.408;13.016;2022-10-23T12:36:08;18.50;;;6.47;;
419;SDS011;42600;54.408;13.016;2022-10-23T12:38:53;9.90;;;4.13;;
419;SDS011;42600;54.408;13.016;2022-10-23T12:41:23;18.10;;;5.37;;
419;SDS011;42600;54.408;13.016;2022-10-23T12:43:51;8.23;;;4.37;;
419;SDS011;42600;54.408;13.016;2022-10-23T12:46:24;11.57;;;4.23;;
419;SDS011;42600;54.408;13.016;2022-10-23T12:48:55;12.40;;;5.30;;
419;SDS011;42600;54.408;13.016;2022-10-23T12:51:24;8.43;;;3.53;;
419;SDS011;42600;54.408;13.016;2022-10-23T12:53:53;23.73;;;5.53;;
419;SDS011;42600;54.408;13.016;2022-10-23T12:56:20;12.23;;;5.73;;
419;SDS011;42600;54.408;13.016;2022-10-23T12:58:48;14.20;;;4.47;;
419;SDS011;42600;54.408;13.016;2022-10-23T13:01:21;17.90;;;7.10;;
419;SDS011;42600;54.408;13.016;2022-10-23T13:03:49;16.20;;;5.13;;
419;SDS011;42600;54.408;13.016;2022-10-23T13:06:17;14.40;;;5.77;;
419;SDS011;42600;54.408;13.016;2022-10-23T13:08:45;13.80;;;5.03;;
419;SDS011;42600;54.408;13.016;2022-10-23T13:11:15;14.37;;;4.47;;
419;SDS011;42600;54.408;13.016;2022-10-23T13:13:45;9.90;;;5.10;;
419;SDS011;42600;54.408;13.016;2022-10-23T13:16:13;17.50;;;5.47;;
419;SDS011;42600;54.408;13.016;2022-10-23T13:18:56;15.97;;;6.80;;
419;SDS011;42600;54.408;13.016;2022-10-23T13:47:38;15.03;;;7.00;;
419;SDS011;42600;54.408;13.016;2022-10-23T13:50:08;18.27;;;6.10;;
419;SDS011;42600;54.408;13.016;2022-10-23T13:52:44;11.20;;;5.60;;
419;SDS011;42600;54.408;13.016;2022-10-23T13:55:16;11.83;;;4.00;;
419;SDS011;42600;54.408;13.016;2022-10-23T13:57:47;17.13;;;5.97;;
419;SDS011;42600;54.408;13.016;2022-10-23T14:00:17;16.07;;;5.20;;
419;SDS011;42600;54.408;13.016;2022-10-23T14:02:48;13.07;;;4.50;;
419;SDS011;42600;54.408;13.016;2022-10-23T14:05:16;12.23;;;4.53;;
419;SDS011;42600;54.408;13.016;2022-10-23T14:07:43;12.07;;;5.53;;
419;SDS011;42600;54.408;13.016;2022-10-23T14:10:10;15.07;;;5.17;;
419;SDS011;42600;54.408;13.016;2022-10-23T14:12:39;14.13;;;6.13;;
419;SDS011;42600;54.408;13.016;2022-10-23T14:15:07;21.23;;;5.43;;
419;SDS011;42600;54.408;13.016;2022-10-23T14:17:35;11.30;;;4.97;;
419;SDS011;42600;54.408;13.016;2022-10-23T14:20:04;14.93;;;5.80;;
419;SDS011;42600;54.408;13.016;2022-10-23T14:22:32;12.40;;;5.57;;
419;SDS011;42600;54.408;13.016;2022-10-23T14:24:59;10.43;;;6.00;;
419;SDS011;42600;54.408;13.016;2022-10-23T14:27:26;22.90;;;6.93;;
419;SDS011;42600;54.408;13.016;2022-10-23T14:29:53;13.13;;;5.80;;
419;SDS011;42600;54.408;13.016;2022-10-23T14:32:20;19.23;;;7.47;;
419;SDS011;42600;54.408;13.016;2022-10-23T14:34:48;17.20;;;5.60;;
419;SDS011;42600;54.408;13.016;2022-10-23T14:37:19;19.00;;;6.87;;
419;SDS011;42600;54.408;13.016;2022-10-23T14:39:46;18.17;;;5.23;;
419;SDS011;42600;54.408;13.016;2022-10-23T14:42:13;17.03;;;6.80;;
419;SDS011;42600;54.408;13.016;2022-10-23T14:44:40;14.77;;;5.67;;
419;SDS011;42600;54.408;13.016;2022-10-23T14:47:08;14.90;;;5.23;;
419;SDS011;42600;54.408;13.016;2022-10-23T14:49:35;12.13;;;5.03;;
419;SDS011;42600;54.408;13.016;2022-10-23T14:52:04;15.67;;;6.83;;
419;SDS011;42600;54.408;13.016;2022-10-23T14:54:33;18.73;;;4.93;;
419;SDS011;42600;54.408;13.016;2022-10-23T14:57:01;13.97;;;5.40;;
419;SDS011;42600;54.408;13.016;2022-10-23T14:59:29;13.83;;;5.27;;
419;SDS011;42600;54.408;13.016;2022-10-23T15:01:56;12.33;;;5.70;;
419;SDS011;42600;54.408;13.016;2022-10-23T15:04:23;13.80;;;4.90;;
419;SDS011;42600;54.408;13.016;2022-10-23T15:06:50;19.63;;;6.30;;
419;SDS011;42600;54.408;13.016;2022-10-23T15:09:17;14.03;;;4.43;;
419;SDS011;42600;54.408;13.016;2022-10-23T15:11:46;9.80;;;4.60;;
419;SDS011;42600;54.408;13.016;2022-10-23T15:14:13;11.43;;;5.07;;
419;SDS011;42600;54.408;13.016;2022-10-23T15:16:40;13.87;;;5.03;;
419;SDS011;42600;54.408;13.016;2022-10-23T15:19:07;26.60;;;6.20;;
419;SDS011;42600;54.408;13.016;2022-10-23T15:21:35;12.97;;;6.13;;
419;SDS011;42600;54.408;13.016;2022-10-23T15:24:02;16.07;;;6.67;;
419;SDS011;42600;54.408;13.016;2022-10-23T15:26:30;18.23;;;6.10;;
419;SDS011;42600;54.408;13.016;2022-10-23T15:28:59;12.63;;;5.20;;
419;SDS011;42600;54.408;13.016;2022-10-23T15:31:40;10.47;;;5.10;;
419;SDS011;42600;54.408;13.016;2022-10-23T15:34:13;24.07;;;7.17;;
419;SDS011;42600;54.408;13.016;2022-10-23T15:36:41;25.83;;;9.37;;
419;SDS011;42600;54.408;13.016;2022-10-23T15:39:09;24.40;;;6.97;;
419;SDS011;42600;54.408;13.016;2022-10-23T15:41:37;29.23;;;8.30;;
419;SDS011;42600;54.408;13.016;2022-10-23T15:44:07;21.47;;;7.43;;
419;SDS011;42600;54.408;13.016;2022-10-23T15:46:36;22.57;;;7.77;;
419;SDS011;42600;54.408;13.016;2022-10-23T15:49:03;18.40;;;7.33;;
419;SDS011;42600;54.408;13.016;2022-10-23T15:51:32;20.20;;;7.23;;
419;SDS011;42600;54.408;13.016;2022-10-23T15:54:00;18.83;;;7.03;;